createdAt,value
2019-01-16T00:00:19.218Z,88.47
2019-01-16T00:01:19.236Z,88.57
2019-01-16T00:02:19.194Z,88.37
2019-01-16T00:03:19.480Z,88.57
2019-01-16T00:04:19.179Z,88.37
2019-01-16T00:05:19.163Z,88.37
2019-01-16T00:06:19.153Z,88.37
2019-01-16T00:07:19.168Z,88.57
2019-01-16T00:08:19.132Z,88.68
2019-01-16T00:09:19.120Z,88.78
2019-01-16T00:10:19.399Z,88.47
2019-01-16T00:11:19.099Z,88.47
2019-01-16T00:12:19.092Z,88.37
2019-01-16T00:13:19.951Z,88.51
2019-01-16T00:14:19.069Z,88.89
2019-01-16T00:15:19.058Z,88.78
2019-01-16T00:16:19.051Z,88.57
2019-01-16T00:17:19.313Z,88.68
2019-01-16T00:18:19.028Z,89.40
2019-01-16T00:19:19.046Z,89.19
2019-01-16T00:20:19.006Z,89.19
2019-01-16T00:21:18.994Z,88.78
2019-01-16T00:22:18.999Z,88.78
2019-01-16T00:23:18.973Z,88.92
2019-01-16T00:24:19.268Z,89.13
2019-01-16T00:25:18.984Z,89.19
2019-01-16T00:26:18.942Z,89.19
2019-01-16T00:27:18.938Z,88.92
2019-01-16T00:28:18.926Z,89.03
2019-01-16T00:29:18.914Z,89.40
2019-01-16T00:30:18.903Z,89.95
2019-01-16T00:31:18.926Z,88.92
2019-01-16T00:32:18.882Z,88.71
2019-01-16T00:33:18.869Z,89.09
2019-01-16T00:34:18.858Z,89.23
2019-01-16T00:35:18.849Z,89.23
2019-01-16T00:36:18.838Z,88.71
2019-01-16T00:37:19.149Z,89.03
2019-01-16T00:38:18.818Z,88.89
2019-01-16T00:39:18.863Z,88.37
2019-01-16T00:40:18.797Z,88.82
2019-01-16T00:41:18.786Z,88.51
2019-01-16T00:42:18.793Z,88.51
2019-01-16T00:43:18.797Z,88.71
2019-01-16T00:44:19.823Z,88.51
2019-01-16T00:45:18.749Z,88.51
2019-01-16T00:46:18.739Z,88.71
2019-01-16T00:47:18.722Z,88.71
2019-01-16T00:48:24.489Z,88.51
2019-01-16T00:49:19.763Z,88.61
2019-01-16T00:50:18.692Z,88.06
2019-01-16T00:51:18.975Z,88.10
2019-01-16T00:52:18.672Z,88.41
2019-01-16T00:53:18.663Z,88.31
2019-01-16T00:54:18.651Z,88.10
2019-01-16T00:55:18.684Z,88.41
2019-01-16T00:56:18.632Z,87.89
2019-01-16T00:57:18.621Z,87.23
2019-01-16T00:58:18.906Z,87.27
2019-01-16T00:59:18.636Z,87.17
2019-01-16T01:00:18.587Z,87.48
2019-01-16T01:01:18.605Z,87.44
2019-01-16T01:02:18.565Z,87.54
2019-01-16T01:03:18.560Z,87.37
2019-01-16T01:04:18.544Z,87.02
2019-01-16T01:05:18.819Z,87.27
2019-01-16T01:06:18.523Z,87.27
2019-01-16T01:07:18.563Z,87.89
2019-01-16T01:08:18.503Z,88.20
2019-01-16T01:09:18.494Z,87.99
2019-01-16T01:10:18.482Z,87.54
2019-01-16T01:11:18.470Z,88.16
2019-01-16T01:12:18.744Z,87.23
2019-01-16T01:13:18.530Z,87.89
2019-01-16T01:14:18.439Z,87.89
2019-01-16T01:15:18.429Z,87.99
2019-01-16T01:16:18.419Z,88.51
2019-01-16T01:17:18.409Z,88.10
2019-01-16T01:18:18.397Z,88.37
2019-01-16T01:19:18.711Z,87.95
2019-01-16T01:20:18.377Z,87.99
2019-01-16T01:21:18.366Z,87.85
2019-01-16T01:22:18.371Z,87.85
2019-01-16T01:23:18.346Z,87.95
2019-01-16T01:24:18.348Z,87.74
2019-01-16T01:25:18.610Z,87.65
2019-01-16T01:26:18.608Z,87.65
2019-01-16T01:27:18.324Z,87.02
2019-01-16T01:28:18.293Z,87.65
2019-01-16T01:29:18.284Z,88.16
2019-01-16T01:30:18.285Z,88.06
2019-01-16T01:31:18.305Z,88.06
2019-01-16T01:32:18.255Z,87.44
2019-01-16T01:33:18.531Z,88.16
2019-01-16T01:34:18.235Z,87.54
2019-01-16T01:35:18.231Z,88.16
2019-01-16T01:36:18.223Z,88.16
2019-01-16T01:37:18.397Z,87.74
2019-01-16T01:38:18.207Z,88.16
2019-01-16T01:39:18.179Z,87.44
2019-01-16T01:40:18.490Z,87.85
2019-01-16T01:41:18.157Z,88.37
2019-01-16T01:42:18.147Z,88.06
2019-01-16T01:43:18.210Z,88.47
2019-01-16T01:44:18.174Z,88.57
2019-01-16T01:45:18.117Z,88.26
2019-01-16T01:46:18.107Z,88.47
2019-01-16T01:47:18.397Z,88.47
2019-01-16T01:48:18.085Z,88.37
2019-01-16T01:49:18.117Z,88.16
2019-01-16T01:50:18.075Z,88.47
2019-01-16T01:51:18.088Z,88.57
2019-01-16T01:52:18.044Z,88.57
2019-01-16T01:53:18.043Z,88.98
2019-01-16T01:54:18.300Z,89.19
2019-01-16T01:55:18.845Z,89.50
2019-01-16T01:56:18.843Z,89.40
2019-01-16T01:57:19.699Z,89.61
2019-01-16T01:58:17.981Z,89.50
2019-01-16T01:59:17.970Z,89.40
2019-01-16T02:00:17.961Z,89.61
2019-01-16T02:01:18.168Z,89.29
2019-01-16T02:02:17.938Z,89.61
2019-01-16T02:03:17.927Z,89.86
2019-01-16T02:04:17.923Z,89.92
2019-01-16T02:05:17.906Z,90.12
2019-01-16T02:06:17.897Z,89.81
2019-01-16T02:07:18.279Z,89.81
2019-01-16T02:08:17.875Z,90.12
2019-01-16T02:09:17.868Z,90.12
2019-01-16T02:10:17.856Z,89.81
2019-01-16T02:11:17.844Z,90.02
2019-01-16T02:12:17.836Z,90.02
2019-01-16T02:13:17.884Z,90.12
2019-01-16T02:14:17.822Z,89.92
2019-01-16T02:15:17.801Z,89.71
2019-01-16T02:16:17.792Z,89.61
2019-01-16T02:17:17.782Z,89.61
2019-01-16T02:18:17.782Z,89.40
2019-01-16T02:19:18.100Z,89.29
2019-01-16T02:20:17.750Z,89.40
2019-01-16T02:21:17.737Z,89.71
2019-01-16T02:22:17.730Z,89.61
2019-01-16T02:23:17.721Z,89.40
2019-01-16T02:24:17.707Z,88.98
2019-01-16T02:25:17.737Z,88.78
2019-01-16T02:26:17.691Z,88.78
2019-01-16T02:27:17.675Z,88.89
2019-01-16T02:28:17.665Z,88.98
2019-01-16T02:29:17.654Z,88.98
2019-01-16T02:30:17.662Z,88.26
2019-01-16T02:31:17.672Z,88.37
2019-01-16T02:32:17.624Z,88.37
2019-01-16T02:33:17.613Z,88.47
2019-01-16T02:34:17.604Z,88.22
2019-01-16T02:35:17.593Z,89.09
2019-01-16T02:36:17.587Z,88.43
2019-01-16T02:37:17.902Z,88.64
2019-01-16T02:38:17.562Z,88.26
2019-01-16T02:39:17.550Z,88.02
2019-01-16T02:40:17.551Z,88.53
2019-01-16T02:41:17.532Z,88.22
2019-01-16T02:42:17.517Z,88.16
2019-01-16T02:43:17.542Z,88.53
2019-01-16T02:44:17.794Z,88.02
2019-01-16T02:45:17.490Z,88.32
2019-01-16T02:46:17.488Z,88.57
2019-01-16T02:47:17.466Z,88.06
2019-01-16T02:48:17.455Z,88.43
2019-01-16T02:49:17.499Z,88.95
2019-01-16T02:50:17.441Z,88.47
2019-01-16T02:51:17.732Z,88.84
2019-01-16T02:52:17.423Z,88.78
2019-01-16T02:53:17.402Z,88.95
2019-01-16T02:54:17.391Z,89.50
2019-01-16T02:55:17.472Z,89.15
2019-01-16T02:56:17.370Z,89.29
2019-01-16T02:57:17.387Z,89.81
2019-01-16T02:58:17.652Z,89.19
2019-01-16T02:59:17.342Z,89.92
2019-01-16T03:01:39.025Z,89.50
2019-01-16T03:02:38.935Z,89.29
2019-01-16T03:03:38.922Z,89.61
2019-01-16T03:04:38.910Z,90.02
2019-01-16T03:05:38.902Z,89.40
2019-01-16T03:06:38.912Z,89.61
2019-01-16T03:07:39.223Z,90.12
2019-01-16T03:08:38.871Z,90.33
2019-01-16T03:09:38.931Z,90.22
2019-01-16T03:10:38.875Z,89.81
2019-01-16T03:11:38.836Z,90.12
2019-01-16T03:12:38.827Z,89.81
2019-01-16T03:13:38.851Z,90.02
2019-01-16T03:14:39.109Z,89.50
2019-01-16T03:15:38.796Z,90.33
2019-01-16T03:16:38.784Z,89.61
2019-01-16T03:17:38.791Z,89.61
2019-01-16T03:18:38.766Z,89.40
2019-01-16T03:19:38.816Z,89.05
2019-01-16T03:20:38.906Z,89.40
2019-01-16T03:21:39.017Z,89.61
2019-01-16T03:22:38.720Z,89.05
2019-01-16T03:23:38.709Z,89.36
2019-01-16T03:24:38.699Z,89.61
2019-01-16T03:25:38.725Z,89.56
2019-01-16T03:26:38.677Z,89.25
2019-01-16T03:27:38.669Z,89.67
2019-01-16T03:28:38.934Z,89.50
2019-01-16T03:29:38.644Z,90.33
2019-01-16T03:30:38.636Z,89.87
2019-01-16T03:31:38.659Z,90.22
2019-01-16T03:32:38.618Z,90.43
2019-01-16T03:33:38.606Z,90.28
2019-01-16T03:34:38.591Z,90.02
2019-01-16T03:35:38.859Z,90.22
2019-01-16T03:36:38.575Z,89.98
2019-01-16T03:37:38.631Z,89.77
2019-01-16T03:38:38.549Z,89.98
2019-01-16T03:39:38.541Z,90.19
2019-01-16T03:40:38.528Z,90.02
2019-01-16T03:41:38.535Z,89.92
2019-01-16T03:42:38.782Z,90.08
2019-01-16T03:43:38.624Z,89.77
2019-01-16T03:44:38.530Z,89.92
2019-01-16T03:45:38.479Z,89.81
2019-01-16T03:46:38.468Z,89.92
2019-01-16T03:47:38.457Z,90.02
2019-01-16T03:48:38.443Z,90.33
2019-01-16T03:49:38.751Z,89.98
2019-01-16T03:50:38.426Z,90.08
2019-01-16T03:51:38.412Z,90.74
2019-01-16T03:52:38.401Z,90.95
2019-01-16T03:53:38.390Z,90.95
2019-01-16T03:54:38.382Z,90.70
2019-01-16T03:55:38.563Z,91.05
2019-01-16T03:56:38.665Z,90.74
2019-01-16T03:57:38.352Z,90.91
2019-01-16T03:58:38.338Z,90.84
2019-01-16T03:59:38.329Z,90.91
2019-01-16T04:00:38.317Z,90.84
2019-01-16T04:01:38.342Z,90.84
2019-01-16T04:02:38.296Z,90.84
2019-01-16T04:03:38.582Z,90.95
2019-01-16T04:04:38.281Z,90.91
2019-01-16T04:05:38.265Z,90.84
2019-01-16T04:06:38.252Z,90.80
2019-01-16T04:07:38.281Z,90.84
2019-01-16T04:08:38.230Z,90.84
2019-01-16T04:09:38.229Z,91.01
2019-01-16T04:10:38.497Z,90.91
2019-01-16T04:11:38.199Z,90.91
2019-01-16T04:12:38.192Z,89.87
2019-01-16T04:13:38.414Z,89.87
2019-01-16T04:14:38.192Z,90.08
2019-01-16T04:15:38.166Z,89.92
2019-01-16T04:16:38.152Z,89.77
2019-01-16T04:17:38.414Z,89.87
2019-01-16T04:18:38.135Z,89.92
2019-01-16T04:19:38.148Z,90.22
2019-01-16T04:20:38.105Z,89.98
2019-01-16T04:21:38.129Z,90.08
2019-01-16T04:22:38.085Z,90.08
2019-01-16T04:23:38.076Z,89.98
2019-01-16T04:24:38.349Z,90.08
2019-01-16T04:25:38.086Z,90.22
2019-01-16T04:26:38.732Z,89.87
2019-01-16T04:27:38.039Z,90.08
2019-01-16T04:28:38.019Z,89.81
2019-01-16T04:29:38.008Z,89.87
2019-01-16T04:30:37.996Z,89.87
2019-01-16T04:31:38.066Z,89.77
2019-01-16T04:32:37.976Z,89.61
2019-01-16T04:33:37.964Z,89.36
2019-01-16T04:34:37.955Z,89.36
2019-01-16T04:35:37.945Z,89.25
2019-01-16T04:36:37.934Z,89.77
2019-01-16T04:37:38.241Z,89.36
2019-01-16T04:38:37.911Z,89.36
2019-01-16T04:39:37.906Z,89.36
2019-01-16T04:40:37.968Z,89.56
2019-01-16T04:41:37.879Z,89.56
2019-01-16T04:42:37.874Z,89.67
2019-01-16T04:43:37.897Z,89.56
2019-01-16T04:44:38.136Z,89.77
2019-01-16T04:45:37.838Z,89.67
2019-01-16T04:46:37.826Z,89.56
2019-01-16T04:47:37.817Z,89.56
2019-01-16T04:48:37.804Z,89.36
2019-01-16T04:49:37.868Z,90.08
2019-01-16T04:50:37.784Z,89.46
2019-01-16T04:51:38.050Z,89.25
2019-01-16T04:52:37.763Z,89.46
2019-01-16T04:53:37.752Z,89.25
2019-01-16T04:54:37.765Z,89.46
2019-01-16T04:55:37.762Z,89.67
2019-01-16T04:56:37.720Z,89.15
2019-01-16T04:57:37.711Z,89.15
2019-01-16T04:58:38.004Z,89.77
2019-01-16T04:59:37.687Z,89.67
2019-01-16T05:00:37.678Z,89.67
2019-01-16T05:01:37.703Z,88.64
2019-01-16T05:02:37.657Z,89.56
2019-01-16T05:03:37.652Z,88.95
2019-01-16T05:04:37.638Z,88.74
2019-01-16T05:05:37.907Z,89.25
2019-01-16T05:06:37.619Z,88.74
2019-01-16T05:07:37.673Z,88.43
2019-01-16T05:08:37.596Z,88.43
2019-01-16T05:09:37.597Z,88.32
2019-01-16T05:10:37.587Z,88.32
2019-01-16T05:11:37.562Z,88.43
2019-01-16T05:12:37.551Z,88.84
2019-01-16T05:13:37.573Z,89.05
2019-01-16T05:14:37.530Z,88.74
2019-01-16T05:15:37.523Z,88.84
2019-01-16T05:16:37.511Z,89.46
2019-01-16T05:17:37.500Z,88.84
2019-01-16T05:18:37.793Z,88.32
2019-01-16T05:19:38.744Z,88.43
2019-01-16T05:20:37.478Z,88.64
2019-01-16T05:21:37.459Z,88.32
2019-01-16T05:22:37.474Z,88.84
2019-01-16T05:23:37.435Z,89.05
2019-01-16T05:24:37.425Z,88.74
2019-01-16T05:25:37.891Z,88.95
2019-01-16T05:26:37.406Z,88.95
2019-01-16T05:27:37.394Z,89.25
2019-01-16T05:28:37.384Z,88.95
2019-01-16T05:29:37.372Z,88.74
2019-01-16T05:30:37.363Z,88.84
2019-01-16T05:31:37.668Z,88.53
2019-01-16T05:32:37.343Z,88.22
2019-01-16T05:33:37.329Z,88.32
2019-01-16T05:34:37.321Z,88.43
2019-01-16T05:35:37.309Z,88.95
2019-01-16T05:36:37.341Z,88.32
2019-01-16T05:37:37.324Z,89.15
2019-01-16T05:38:37.280Z,89.25
2019-01-16T05:39:37.269Z,89.87
2019-01-16T05:40:37.255Z,89.05
2019-01-16T05:41:37.247Z,88.95
2019-01-16T05:42:37.250Z,89.05
2019-01-16T05:43:37.555Z,89.67
2019-01-16T05:44:37.216Z,88.84
2019-01-16T05:45:37.206Z,89.05
2019-01-16T05:46:37.192Z,88.95
2019-01-16T05:47:37.182Z,89.05
2019-01-16T05:48:37.174Z,88.95
2019-01-16T05:49:37.201Z,88.74
2019-01-16T05:50:37.162Z,89.05
2019-01-16T05:51:37.138Z,88.74
2019-01-16T05:52:37.127Z,88.43
2019-01-16T05:53:37.117Z,88.53
2019-01-16T05:54:37.113Z,88.64
2019-01-16T05:55:37.408Z,88.74
2019-01-16T05:56:37.088Z,88.22
2019-01-16T05:57:37.075Z,88.53
2019-01-16T05:58:37.067Z,88.32
2019-01-16T05:59:37.055Z,88.22
2019-01-16T06:00:37.043Z,88.53
2019-01-16T06:01:37.103Z,88.53
2019-01-16T06:02:37.034Z,88.53
2019-01-16T06:03:37.013Z,87.92
2019-01-16T06:04:37.002Z,87.81
2019-01-16T06:05:37.713Z,87.71
2019-01-16T06:06:36.978Z,87.71
2019-01-16T06:07:37.010Z,87.29
2019-01-16T06:08:36.976Z,87.29
2019-01-16T06:09:37.709Z,87.46
2019-01-16T06:10:36.940Z,87.46
2019-01-16T06:11:36.939Z,87.50
2019-01-16T06:12:36.915Z,87.98
2019-01-16T06:13:36.937Z,87.60
2019-01-16T06:14:36.896Z,87.19
2019-01-16T06:15:36.885Z,87.08
2019-01-16T06:16:36.875Z,86.88
2019-01-16T06:17:36.863Z,87.26
2019-01-16T06:18:36.852Z,87.29
2019-01-16T06:19:37.019Z,86.84
2019-01-16T06:20:36.850Z,86.94
2019-01-16T06:21:36.823Z,87.29
2019-01-16T06:22:36.818Z,87.66
2019-01-16T06:23:36.803Z,87.46
2019-01-16T06:24:36.791Z,87.19
2019-01-16T06:25:37.168Z,86.74
2019-01-16T06:26:36.767Z,87.15
2019-01-16T06:27:36.780Z,86.84
2019-01-16T06:28:36.749Z,86.84
2019-01-16T06:29:36.756Z,87.26
2019-01-16T06:30:36.724Z,87.05
2019-01-16T06:31:36.953Z,87.08
2019-01-16T06:32:36.705Z,87.87
2019-01-16T06:33:36.701Z,87.71
2019-01-16T06:34:36.700Z,88.02
2019-01-16T06:35:36.699Z,87.81
2019-01-16T06:36:36.661Z,88.53
2019-01-16T06:37:38.242Z,87.71
2019-01-16T06:38:36.661Z,87.71
2019-01-16T06:39:36.630Z,88.53
2019-01-16T06:40:36.622Z,88.64
2019-01-16T06:41:36.659Z,88.43
2019-01-16T06:42:36.598Z,88.43
2019-01-16T06:43:36.647Z,88.43
2019-01-16T06:44:36.878Z,88.12
2019-01-16T06:45:36.567Z,88.64
2019-01-16T06:46:36.556Z,88.32
2019-01-16T06:47:36.549Z,88.95
2019-01-16T06:48:36.555Z,88.53
2019-01-16T06:49:36.809Z,88.64
2019-01-16T06:50:36.518Z,88.95
2019-01-16T06:51:36.545Z,89.56
2019-01-16T06:52:36.534Z,89.77
2019-01-16T06:53:36.521Z,89.36
2019-01-16T06:54:36.479Z,90.53
2019-01-16T06:55:36.530Z,89.77
2019-01-16T06:56:36.452Z,90.08
2019-01-16T06:57:36.775Z,90.02
2019-01-16T06:58:36.436Z,89.87
2019-01-16T06:59:36.424Z,90.28
2019-01-16T07:00:36.437Z,89.92
2019-01-16T07:01:36.431Z,90.33
2019-01-16T07:02:36.390Z,89.98
2019-01-16T07:03:36.386Z,89.67
2019-01-16T07:04:36.701Z,89.77
2019-01-16T07:05:36.358Z,90.28
2019-01-16T07:06:36.363Z,89.87
2019-01-16T07:07:36.377Z,89.98
2019-01-16T07:08:36.340Z,90.12
2019-01-16T07:09:38.026Z,89.71
2019-01-16T07:10:36.308Z,90.28
2019-01-16T07:11:36.296Z,90.12
2019-01-16T07:12:36.287Z,89.77
2019-01-16T07:13:36.320Z,89.56
2019-01-16T07:14:36.266Z,89.98
2019-01-16T07:15:36.251Z,91.16
2019-01-16T07:16:36.243Z,90.80
2019-01-16T07:17:36.267Z,90.43
2019-01-16T07:18:36.221Z,91.05
2019-01-16T07:19:36.267Z,91.56
2019-01-16T07:20:36.211Z,91.16
2019-01-16T07:21:36.199Z,91.56
2019-01-16T07:22:36.176Z,91.26
2019-01-16T07:23:36.619Z,91.05
2019-01-16T07:24:36.165Z,91.16
2019-01-16T07:25:36.239Z,91.36
2019-01-16T07:26:36.144Z,91.26
2019-01-16T07:27:36.127Z,91.77
2019-01-16T07:28:36.122Z,92.08
2019-01-16T07:29:36.104Z,92.60
2019-01-16T07:30:36.094Z,92.50
2019-01-16T07:31:36.151Z,92.40
2019-01-16T07:32:36.073Z,92.80
2019-01-16T07:33:36.063Z,92.91
2019-01-16T07:34:36.049Z,92.85
2019-01-16T07:35:36.043Z,92.70
2019-01-16T07:36:36.028Z,92.95
2019-01-16T07:37:37.695Z,93.37
2019-01-16T07:38:36.006Z,93.16
2019-01-16T07:39:35.995Z,93.37
2019-01-16T07:40:35.985Z,93.37
2019-01-16T07:41:37.456Z,92.85
2019-01-16T07:42:35.983Z,93.26
2019-01-16T07:43:36.078Z,93.16
2019-01-16T07:44:35.943Z,93.22
2019-01-16T07:45:36.695Z,93.16
2019-01-16T07:46:35.929Z,92.95
2019-01-16T07:47:35.921Z,93.47
2019-01-16T07:48:36.249Z,93.26
2019-01-16T07:49:36.039Z,93.05
2019-01-16T07:50:36.655Z,92.95
2019-01-16T07:51:35.868Z,93.05
2019-01-16T07:52:35.867Z,92.85
2019-01-16T07:53:35.849Z,92.85
2019-01-16T07:54:35.836Z,92.80
2019-01-16T07:55:35.873Z,92.74
2019-01-16T07:56:35.817Z,92.85
2019-01-16T07:57:35.808Z,92.29
2019-01-16T07:58:35.806Z,91.67
2019-01-16T07:59:35.784Z,91.46
2019-01-16T08:00:35.782Z,91.26
2019-01-16T08:01:35.798Z,91.05
2019-01-16T08:02:35.760Z,91.26
2019-01-16T08:03:35.741Z,91.05
2019-01-16T08:04:35.735Z,91.46
2019-01-16T08:05:35.719Z,90.74
2019-01-16T08:06:35.733Z,91.05
2019-01-16T08:07:35.744Z,90.53
2019-01-16T08:08:35.739Z,91.26
2019-01-16T08:09:35.689Z,90.74
2019-01-16T08:10:36.389Z,90.64
2019-01-16T08:11:35.753Z,90.84
2019-01-16T08:12:35.713Z,91.05
2019-01-16T08:13:36.029Z,90.33
2019-01-16T08:14:35.635Z,90.43
2019-01-16T08:15:35.617Z,89.81
2019-01-16T08:16:35.604Z,90.12
2019-01-16T08:17:35.616Z,90.64
2019-01-16T08:18:35.595Z,90.33
2019-01-16T08:19:36.045Z,89.92
2019-01-16T08:20:35.560Z,90.02
2019-01-16T08:21:35.556Z,90.43
2019-01-16T08:22:35.538Z,90.22
2019-01-16T08:23:35.528Z,90.02
2019-01-16T08:24:35.767Z,89.61
2019-01-16T08:25:35.906Z,89.98
2019-01-16T08:26:35.505Z,89.81
2019-01-16T08:27:35.518Z,89.50
2019-01-16T08:28:35.474Z,89.40
2019-01-16T08:29:35.480Z,89.29
2019-01-16T08:30:35.456Z,89.50
2019-01-16T08:31:35.512Z,89.25
2019-01-16T08:32:35.517Z,89.46
2019-01-16T08:33:35.432Z,89.15
2019-01-16T08:34:35.429Z,88.95
2019-01-16T08:35:35.405Z,88.74
2019-01-16T08:36:35.399Z,88.89
2019-01-16T08:37:35.411Z,88.74
2019-01-16T08:38:35.368Z,89.46
2019-01-16T08:39:35.445Z,88.95
2019-01-16T08:40:35.346Z,89.81
2019-01-16T08:41:35.382Z,89.71
2019-01-16T08:42:35.331Z,89.61
2019-01-16T08:43:36.039Z,89.92
2019-01-16T08:44:35.438Z,89.40
2019-01-16T08:45:35.407Z,89.46
2019-01-16T08:46:35.287Z,89.36
2019-01-16T08:47:35.357Z,89.87
2019-01-16T08:48:35.363Z,89.61
2019-01-16T08:49:35.316Z,89.56
2019-01-16T08:50:35.256Z,89.71
2019-01-16T08:51:35.236Z,90.22
2019-01-16T08:52:35.239Z,89.29
2019-01-16T08:53:35.498Z,89.29
2019-01-16T08:54:35.231Z,89.40
2019-01-16T08:55:35.362Z,89.29
2019-01-16T08:56:35.223Z,89.61
2019-01-16T08:57:35.232Z,89.61
2019-01-16T08:58:35.162Z,89.19
2019-01-16T08:59:35.553Z,89.19
2019-01-16T09:00:35.133Z,88.78
2019-01-16T09:01:35.702Z,88.74
2019-01-16T09:02:35.116Z,88.74
2019-01-16T09:03:35.101Z,88.53
2019-01-16T09:04:35.091Z,87.74
2019-01-16T09:05:35.087Z,87.81
2019-01-16T09:06:35.081Z,88.64
2019-01-16T09:07:35.088Z,88.43
2019-01-16T09:08:35.099Z,87.92
2019-01-16T09:09:35.038Z,87.13
2019-01-16T09:10:35.681Z,87.08
2019-01-16T09:11:35.025Z,87.50
2019-01-16T09:12:35.005Z,87.40
2019-01-16T09:13:35.032Z,87.08
2019-01-16T09:14:35.693Z,87.40
2019-01-16T09:15:35.248Z,86.78
2019-01-16T09:16:34.979Z,87.29
2019-01-16T09:17:34.991Z,87.29
2019-01-16T09:18:34.941Z,87.29
2019-01-16T09:19:35.456Z,87.26
2019-01-16T09:20:39.976Z,86.68
2019-01-16T09:21:35.938Z,86.84
2019-01-16T09:22:34.898Z,86.43
2019-01-16T09:23:35.657Z,86.32
2019-01-16T09:24:34.880Z,86.68
2019-01-16T09:25:34.895Z,86.47
2019-01-16T09:26:35.229Z,86.57
2019-01-16T09:27:34.865Z,86.57
2019-01-16T09:28:34.846Z,87.19
2019-01-16T09:29:35.115Z,86.68
2019-01-16T09:30:34.824Z,86.47
2019-01-16T09:31:34.858Z,86.57
2019-01-16T09:32:34.792Z,86.88
2019-01-16T09:33:35.162Z,86.43
2019-01-16T09:34:34.771Z,85.60
2019-01-16T09:35:34.787Z,86.16
2019-01-16T09:36:34.750Z,85.71
2019-01-16T09:37:34.836Z,85.39
2019-01-16T09:38:34.733Z,86.43
2019-01-16T09:39:34.730Z,85.60
2019-01-16T09:40:34.714Z,85.71
2019-01-16T09:41:34.696Z,85.60
2019-01-16T09:42:34.697Z,85.50
2019-01-16T09:43:35.595Z,86.12
2019-01-16T09:44:34.701Z,85.81
2019-01-16T09:45:34.671Z,85.30
2019-01-16T09:46:34.657Z,85.09
2019-01-16T09:47:34.649Z,85.19
2019-01-16T09:48:34.738Z,84.88
2019-01-16T09:49:34.718Z,84.88
2019-01-16T09:50:34.606Z,84.47
2019-01-16T09:51:34.612Z,84.57
2019-01-16T09:52:36.656Z,83.64
2019-01-16T09:53:34.738Z,84.06
2019-01-16T09:54:34.817Z,83.81
2019-01-16T09:55:34.710Z,83.95
2019-01-16T09:56:34.644Z,83.75
2019-01-16T09:57:34.529Z,83.85
2019-01-16T09:58:34.533Z,83.19
2019-01-16T09:59:34.515Z,83.64
2019-01-16T10:00:34.499Z,83.64
2019-01-16T10:01:34.704Z,83.95
2019-01-16T10:02:34.505Z,82.89
2019-01-16T10:03:34.478Z,83.29
2019-01-16T10:04:34.791Z,83.09
2019-01-16T10:05:34.446Z,82.57
2019-01-16T10:06:34.547Z,83.91
2019-01-16T10:07:34.501Z,83.71
2019-01-16T10:08:34.417Z,83.40
2019-01-16T10:09:34.410Z,83.29
2019-01-16T10:10:34.647Z,82.78
2019-01-16T10:11:35.178Z,83.19
2019-01-16T10:12:34.373Z,82.78
2019-01-16T10:13:34.653Z,82.78
2019-01-16T10:14:34.389Z,82.57
2019-01-16T10:15:34.343Z,82.37
2019-01-16T10:16:34.337Z,82.51
2019-01-16T10:17:34.326Z,82.89
2019-01-16T10:18:34.324Z,82.30
2019-01-16T10:19:34.416Z,82.20
2019-01-16T10:20:34.289Z,82.10
2019-01-16T10:21:34.278Z,81.75
2019-01-16T10:22:34.283Z,81.34
2019-01-16T10:23:34.258Z,81.48
2019-01-16T10:24:34.314Z,81.17
2019-01-16T10:25:34.317Z,81.23
2019-01-16T10:26:34.233Z,81.23
2019-01-16T10:27:34.352Z,81.58
2019-01-16T10:28:34.282Z,81.37
2019-01-16T10:29:34.463Z,81.07
2019-01-16T10:30:34.235Z,80.82
2019-01-16T10:31:34.308Z,80.65
2019-01-16T10:32:34.437Z,80.96
2019-01-16T10:33:34.239Z,81.34
2019-01-16T10:34:34.600Z,80.82
2019-01-16T10:35:34.129Z,80.82
2019-01-16T10:36:34.119Z,80.00
2019-01-16T10:37:35.074Z,79.93
2019-01-16T10:38:34.199Z,79.90
2019-01-16T10:39:34.342Z,80.10
2019-01-16T10:40:34.671Z,80.30
2019-01-16T10:41:34.121Z,80.55
2019-01-16T10:42:34.070Z,80.55
2019-01-16T10:43:34.169Z,80.55
2019-01-16T10:44:34.385Z,80.62
2019-01-16T10:45:34.227Z,80.04
2019-01-16T10:46:37.152Z,80.76
2019-01-16T10:47:34.167Z,80.14
2019-01-16T10:48:34.590Z,80.55
2019-01-16T10:49:34.651Z,79.83
2019-01-16T10:50:34.235Z,80.24
2019-01-16T10:51:34.251Z,79.93
2019-01-16T10:52:34.685Z,80.44
2019-01-16T10:53:34.104Z,80.51
2019-01-16T10:54:34.074Z,80.04
2019-01-16T10:55:34.760Z,79.83
2019-01-16T10:56:34.040Z,80.10
2019-01-16T10:57:34.144Z,79.79
2019-01-16T10:58:34.413Z,79.27
2019-01-16T10:59:34.630Z,79.58
2019-01-16T11:00:33.871Z,79.07
2019-01-16T11:01:34.010Z,79.21
2019-01-16T11:02:33.844Z,79.07
2019-01-16T11:03:33.897Z,79.58
2019-01-16T11:04:33.837Z,80.41
2019-01-16T11:05:33.811Z,80.20
2019-01-16T11:06:33.800Z,79.90
2019-01-16T11:07:34.808Z,80.20
2019-01-16T11:08:33.928Z,80.51
2019-01-16T11:09:33.777Z,80.51
2019-01-16T11:10:33.759Z,79.69
2019-01-16T11:11:33.754Z,80.10
2019-01-16T11:12:33.739Z,80.00
2019-01-16T11:13:33.861Z,80.41
2019-01-16T11:14:33.741Z,78.76
2019-01-16T11:15:33.718Z,78.90
2019-01-16T11:16:33.746Z,78.86
2019-01-16T11:17:33.716Z,78.38
2019-01-16T11:18:33.776Z,78.76
2019-01-16T11:19:33.878Z,78.69
2019-01-16T11:20:33.654Z,79.00
2019-01-16T11:21:34.626Z,79.11
2019-01-16T11:22:33.636Z,79.00
2019-01-16T11:23:34.130Z,78.38
2019-01-16T11:24:33.640Z,78.80
2019-01-16T11:25:33.752Z,78.69
2019-01-16T11:26:33.606Z,78.59
2019-01-16T11:27:33.595Z,78.18
2019-01-16T11:28:33.627Z,77.76
2019-01-16T11:29:33.578Z,77.87
2019-01-16T11:30:33.599Z,77.87
2019-01-16T11:31:33.704Z,77.97
2019-01-16T11:32:33.954Z,77.66
2019-01-16T11:33:33.521Z,77.66
2019-01-16T11:34:33.502Z,77.70
2019-01-16T11:35:34.513Z,78.08
2019-01-16T11:36:33.505Z,77.97
2019-01-16T11:37:33.722Z,77.76
2019-01-16T11:38:33.561Z,77.76
2019-01-16T11:39:33.547Z,77.66
2019-01-16T11:40:34.104Z,78.42
2019-01-16T11:41:33.528Z,77.80
2019-01-16T11:42:33.434Z,78.31
2019-01-16T11:43:33.649Z,78.18
2019-01-16T11:44:33.401Z,78.63
2019-01-16T11:45:33.394Z,78.63
2019-01-16T11:46:33.377Z,78.11
2019-01-16T11:47:33.462Z,78.42
2019-01-16T11:48:33.353Z,78.63
2019-01-16T11:49:33.469Z,78.94
2019-01-16T11:50:33.334Z,78.31
2019-01-16T11:51:33.775Z,78.52
2019-01-16T11:52:33.312Z,79.04
2019-01-16T11:53:33.715Z,78.94
2019-01-16T11:54:33.482Z,78.94
2019-01-16T11:55:33.847Z,79.35
2019-01-16T11:56:33.308Z,78.94
2019-01-16T11:57:33.763Z,78.83
2019-01-16T11:58:33.420Z,78.94
2019-01-16T11:59:33.496Z,79.14
2019-01-16T12:00:33.539Z,79.76
2019-01-16T12:01:33.338Z,79.18
2019-01-16T12:02:38.505Z,78.97
2019-01-16T12:03:34.386Z,79.97
2019-01-16T12:04:33.199Z,79.35
2019-01-16T12:05:33.212Z,79.45
2019-01-16T12:06:33.454Z,78.94
2019-01-16T12:07:33.516Z,79.35
2019-01-16T12:08:33.977Z,79.35
2019-01-16T12:09:33.180Z,79.55
2019-01-16T12:10:33.260Z,79.55
2019-01-16T12:11:33.725Z,80.07
2019-01-16T12:12:33.113Z,80.38
2019-01-16T12:13:33.380Z,79.25
2019-01-16T12:14:33.096Z,79.25
2019-01-16T12:15:33.224Z,79.97
2019-01-16T12:16:33.177Z,80.44
2019-01-16T12:17:33.133Z,79.93
2019-01-16T12:18:33.102Z,78.80
2019-01-16T12:19:33.109Z,79.21
2019-01-16T12:20:33.653Z,79.62
2019-01-16T12:21:34.316Z,79.41
2019-01-16T12:22:33.012Z,78.52
2019-01-16T12:23:33.471Z,79.14
2019-01-16T12:24:33.125Z,79.14
2019-01-16T12:25:33.538Z,78.38
2019-01-16T12:26:32.959Z,78.69
2019-01-16T12:27:32.944Z,78.90
2019-01-16T12:28:33.322Z,78.38
2019-01-16T12:29:32.926Z,78.59
2019-01-16T12:30:32.914Z,79.11
2019-01-16T12:31:32.965Z,77.87
2019-01-16T12:32:33.314Z,78.38
2019-01-16T12:33:33.172Z,78.49
2019-01-16T12:34:33.113Z,78.18
2019-01-16T12:35:33.340Z,78.49
2019-01-16T12:36:33.270Z,78.90
2019-01-16T12:37:32.993Z,78.21
2019-01-16T12:38:32.829Z,78.73
2019-01-16T12:39:32.854Z,78.42
2019-01-16T12:40:34.459Z,78.31
2019-01-16T12:41:33.904Z,77.91
2019-01-16T12:42:32.779Z,77.76
2019-01-16T12:43:32.805Z,77.76
2019-01-16T12:44:32.817Z,77.91
2019-01-16T12:45:33.755Z,77.97
2019-01-16T12:46:32.872Z,78.11
2019-01-16T12:47:32.839Z,78.01
2019-01-16T12:48:32.768Z,78.21
2019-01-16T12:49:32.996Z,77.91
2019-01-16T12:50:32.786Z,78.11
2019-01-16T12:51:33.777Z,78.01
2019-01-16T12:52:32.888Z,78.25
2019-01-16T12:53:32.771Z,77.94